This is the latest recevied weather packets stored in our database for station/object M0HPP-13. If no packets are shown the sender has not sent any weather packets the latest 10 day(s).
| Time | Temp. | Humidity | Pressure | Rain* | Wind** | Luminosity | Snow |
|---|---|---|---|---|---|---|---|
| 1777678819 | 8.89° C | 83% | 1014 hPa | 0 mm | - | 0 W/m² | - |
| 1777678219 | 8.89° C | 83% | 1014.1 hPa | 0 mm | - | 0 W/m² | - |
| 1777677619 | 8.89° C | 83% | 1014.1 hPa | 0 mm | - | 0 W/m² | - |
| 1777677019 | 8.89° C | 81% | 1014.1 hPa | 0 mm | - | 0 W/m² | - |
| 1777676419 | 8.33° C | 83% | 1014.2 hPa | 0 mm | - | 0 W/m² | - |
| 1777675819 | 8.33° C | 83% | 1014.3 hPa | 0 mm | - | 0 W/m² | - |
| 1777675219 | 8.33° C | 83% | 1014.2 hPa | 0 mm | - | 0 W/m² | - |
| 1777674620 | 8.33° C | 83% | 1014.2 hPa | 0 mm | - | 0 W/m² | - |
| 1777674020 | 8.89° C | 82% | 1014.2 hPa | 0 mm | - | 0 W/m² | - |
| 1777673419 | 9.44° C | 81% | 1014.2 hPa | 0 mm | - | 0 W/m² | - |
| 1777672819 | 9.44° C | 80% | 1014.3 hPa | 0 mm | - | 0 W/m² | - |
| 1777672219 | 9.44° C | 80% | 1014.4 hPa | 0 mm | - | 0 W/m² | - |
| 1777671619 | 10° C | 80% | 1014.2 hPa | 0 mm | - | 0 W/m² | - |
| 1777671019 | 10.56° C | 77% | 1014.5 hPa | 0 mm | - | 0 W/m² | - |
| 1777670419 | 10.56° C | 77% | 1014.5 hPa | 0 mm | - | 0 W/m² | - |
| 1777669819 | 10.56° C | 77% | 1014.4 hPa | 0 mm | - | 0 W/m² | - |
| 1777669219 | 10.56° C | 78% | 1014.5 hPa | 0 mm | - | 0 W/m² | - |
| 1777668619 | 10.56° C | 77% | 1014.6 hPa | 0 mm | - | 0 W/m² | - |
| 1777668019 | 10.56° C | 77% | 1014.5 hPa | 0 mm | - | 0 W/m² | - |
| 1777667419 | 10.56° C | 77% | 1014.5 hPa | 0 mm | - | 0 W/m² | - |
| 1777666219 | 11.11° C | 76% | 1014.6 hPa | 0 mm | - | 2 W/m² | - |
| 1777663819 | 11.67° C | 77% | 1014.7 hPa | 0 mm | - | 18 W/m² | - |
| 1777662019 | 12.22° C | 73% | 1014.5 hPa | 0 mm | - | 24 W/m² | - |
| 1777661419 | 13.33° C | 70% | 1014.4 hPa | 0 mm | - | 25 W/m² | - |
| 1777660819 | 13.89° C | 64% | 1014.4 hPa | 0 mm | - | 34 W/m² | - |
* Rain latest hour (hover to see other rain measurements)
** Current wind speed in m/s (hover to see current wind gust speed)